createdAt,value
2022-08-20T00:01:41.732Z,13.27
2022-08-20T00:04:17.180Z,8.55
2022-08-20T00:07:03.411Z,9.43
2022-08-20T00:09:37.528Z,9.60
2022-08-20T00:12:25.450Z,9.93
2022-08-20T00:14:59.512Z,8.57
2022-08-20T00:17:47.433Z,9.13
2022-08-20T00:20:28.462Z,12.80
2022-08-20T00:23:16.447Z,12.13
2022-08-20T00:25:58.433Z,9.27
2022-08-20T00:28:46.446Z,12.00
2022-08-20T00:31:23.524Z,12.13
2022-08-20T00:34:10.458Z,13.63
2022-08-20T00:36:44.518Z,8.07
2022-08-20T00:39:32.491Z,11.68
2022-08-20T00:42:06.516Z,11.48
2022-08-20T00:44:54.436Z,7.82
2022-08-20T00:47:28.543Z,10.60
2022-08-20T00:50:17.361Z,8.40
2022-08-20T00:53:00.461Z,10.05
2022-08-20T00:55:54.448Z,11.75
2022-08-20T00:58:43.460Z,11.45
2022-08-20T01:01:18.071Z,9.32
2022-08-20T01:04:04.451Z,12.55
2022-08-20T01:06:45.464Z,17.05
2022-08-20T01:09:57.432Z,15.32
2022-08-20T01:12:59.053Z,9.05
2022-08-20T01:15:50.475Z,9.95
2022-08-20T01:18:26.541Z,7.70
2022-08-20T01:21:14.488Z,10.25
2022-08-20T01:24:14.558Z,11.45
2022-08-20T01:27:02.473Z,12.32
2022-08-20T01:29:39.561Z,12.23
2022-08-20T01:32:26.498Z,13.35
2022-08-20T01:35:00.588Z,13.35
2022-08-20T01:37:47.467Z,15.25
2022-08-20T01:40:24.566Z,8.70
2022-08-20T01:43:15.459Z,13.38
2022-08-20T01:45:51.573Z,10.68
2022-08-20T01:48:39.488Z,13.23
2022-08-20T01:51:24.615Z,9.80
2022-08-20T01:54:13.501Z,12.02
2022-08-20T01:56:59.883Z,14.13
2022-08-20T02:02:27.501Z,13.30
2022-08-20T02:05:22.517Z,13.45
2022-08-20T02:08:10.510Z,15.48
2022-08-20T02:10:46.643Z,25.13
2022-08-20T02:13:33.520Z,14.07
2022-08-20T02:16:08.620Z,13.20
2022-08-20T02:19:00.499Z,19.30
2022-08-20T02:21:41.578Z,17.52
2022-08-20T02:24:21.518Z,14.63
2022-08-20T02:27:03.607Z,12.30
2022-08-20T02:29:44.507Z,11.73
2022-08-20T02:32:34.211Z,13.07
2022-08-20T02:35:10.273Z,11.95
2022-08-20T02:37:58.559Z,14.15
2022-08-20T02:40:33.165Z,17.80
2022-08-20T02:43:21.515Z,9.05
2022-08-20T02:45:55.705Z,15.93
2022-08-20T02:48:43.504Z,11.90
2022-08-20T02:51:17.473Z,18.52
2022-08-20T02:54:18.526Z,12.77
2022-08-20T02:56:58.542Z,13.18
2022-08-20T02:59:39.600Z,15.65
2022-08-20T03:02:20.526Z,14.18
2022-08-20T03:05:01.602Z,16.55
2022-08-20T03:07:49.635Z,13.90
2022-08-20T03:10:34.634Z,13.77
2022-08-20T03:13:18.535Z,14.57
2022-08-20T03:16:01.611Z,14.85
2022-08-20T03:18:43.535Z,13.13
2022-08-20T03:21:24.626Z,12.55
2022-08-20T03:24:04.548Z,12.73
2022-08-20T03:26:45.613Z,12.60
2022-08-20T03:29:25.554Z,15.35
2022-08-20T03:32:12.547Z,14.75
2022-08-20T03:34:46.568Z,15.27
2022-08-20T03:37:34.539Z,11.68
2022-08-20T03:40:11.153Z,15.45
2022-08-20T03:42:59.574Z,16.60
2022-08-20T03:45:33.584Z,17.75
2022-08-20T03:48:23.552Z,17.88
2022-08-20T03:51:07.519Z,18.52
2022-08-20T03:53:55.525Z,17.48
2022-08-20T03:56:29.503Z,16.40
2022-08-20T03:59:17.533Z,17.58
2022-08-20T04:01:58.609Z,16.75
2022-08-20T04:04:47.546Z,13.65
2022-08-20T04:07:25.510Z,18.20
2022-08-20T04:10:13.572Z,20.30
2022-08-20T04:13:07.557Z,16.27
2022-08-20T04:15:55.560Z,17.50
2022-08-20T04:18:32.140Z,14.95
2022-08-20T04:21:19.573Z,13.73
2022-08-20T04:24:00.570Z,19.05
2022-08-20T04:26:48.562Z,14.38
2022-08-20T04:29:22.645Z,17.77
2022-08-20T04:32:12.554Z,16.08
2022-08-20T04:34:53.564Z,13.35
2022-08-20T04:37:48.564Z,13.52
2022-08-20T04:40:55.584Z,16.42
2022-08-20T04:43:33.651Z,14.35
2022-08-20T04:46:20.543Z,14.98
2022-08-20T04:48:54.664Z,17.83
2022-08-20T04:51:41.575Z,17.75
2022-08-20T04:54:15.652Z,12.40
2022-08-20T04:57:02.564Z,14.50
2022-08-20T04:59:36.650Z,16.52
2022-08-20T05:02:24.568Z,14.35
2022-08-20T05:04:58.649Z,14.98
2022-08-20T05:07:52.636Z,14.82
2022-08-20T05:10:26.658Z,14.93
2022-08-20T05:13:14.631Z,19.52
2022-08-20T05:15:55.589Z,17.10
2022-08-20T05:18:44.587Z,16.83
2022-08-20T05:21:32.574Z,17.10
2022-08-20T05:24:13.601Z,20.20
2022-08-20T05:26:54.594Z,16.92
2022-08-20T05:29:48.572Z,13.52
2022-08-20T05:32:44.633Z,14.02
2022-08-20T05:35:18.813Z,17.73
2022-08-20T05:38:05.605Z,14.82
2022-08-20T05:40:47.768Z,16.80
2022-08-20T05:43:28.607Z,19.77
2022-08-20T05:46:15.601Z,13.10
2022-08-20T05:48:49.573Z,17.08
2022-08-20T05:51:37.598Z,13.90
2022-08-20T05:54:11.541Z,17.83
2022-08-20T05:56:59.597Z,13.88
2022-08-20T05:59:34.842Z,11.02
2022-08-20T06:02:39.602Z,15.43
2022-08-20T06:05:13.986Z,19.30
2022-08-20T06:08:07.217Z,21.27
2022-08-20T06:10:44.011Z,12.40
2022-08-20T06:13:30.853Z,10.27
2022-08-20T06:16:24.601Z,14.18
2022-08-20T06:19:16.617Z,16.77
2022-08-20T06:22:17.719Z,14.38
2022-08-20T06:25:14.624Z,17.45
2022-08-20T06:28:02.620Z,15.05
2022-08-20T06:30:36.721Z,14.10
2022-08-20T06:33:23.611Z,17.00
2022-08-20T06:35:56.790Z,13.27
2022-08-20T06:38:44.641Z,10.68
2022-08-20T06:41:18.886Z,13.93
2022-08-20T06:44:06.661Z,20.92
2022-08-20T06:46:51.624Z,14.23
2022-08-20T06:49:48.638Z,14.60
2022-08-20T06:52:52.689Z,14.27
2022-08-20T06:55:30.706Z,17.35
2022-08-20T06:58:32.785Z,13.02
2022-08-20T07:01:20.664Z,14.40
2022-08-20T07:04:07.648Z,11.40
2022-08-20T07:06:41.704Z,14.38
2022-08-20T07:09:28.660Z,17.30
2022-08-20T07:12:02.719Z,17.83
2022-08-20T07:14:51.630Z,14.05
2022-08-20T07:17:25.740Z,17.13
2022-08-20T07:20:14.674Z,15.93
2022-08-20T07:22:49.797Z,11.15
2022-08-20T07:25:38.644Z,16.02
2022-08-20T07:28:22.715Z,20.38
2022-08-20T07:31:21.678Z,11.40
2022-08-20T07:34:02.746Z,15.27
2022-08-20T07:36:43.687Z,14.02
2022-08-20T07:39:31.664Z,10.88
2022-08-20T07:42:07.379Z,15.75
2022-08-20T07:44:54.687Z,12.73
2022-08-20T07:47:28.597Z,10.95
2022-08-20T07:50:16.668Z,13.07
2022-08-20T07:52:53.446Z,12.82
2022-08-20T07:55:48.956Z,12.25
2022-08-20T07:58:35.737Z,12.77
2022-08-20T08:01:23.677Z,16.08
2022-08-20T08:03:58.046Z,11.52
2022-08-20T08:06:38.657Z,20.65
2022-08-20T08:09:13.809Z,13.70
2022-08-20T08:11:56.666Z,13.30
2022-08-20T08:14:39.399Z,11.77
2022-08-20T08:17:20.677Z,15.73
2022-08-20T08:20:00.838Z,11.10
2022-08-20T08:22:41.687Z,17.52
2022-08-20T08:25:22.765Z,11.63
2022-08-20T08:28:10.677Z,8.77
2022-08-20T08:30:51.752Z,12.32
2022-08-20T08:33:35.665Z,12.40
2022-08-20T08:36:18.762Z,9.48
2022-08-20T08:39:00.706Z,11.48
2022-08-20T08:41:51.866Z,12.45
2022-08-20T08:44:34.684Z,9.38
2022-08-20T08:47:25.126Z,11.85
2022-08-20T08:50:06.697Z,16.08
2022-08-20T08:52:47.754Z,10.38
2022-08-20T08:55:29.696Z,8.63
2022-08-20T08:58:16.747Z,11.75
2022-08-20T09:01:02.045Z,15.80
2022-08-20T09:03:46.780Z,17.48
2022-08-20T09:06:37.698Z,13.65
2022-08-20T09:09:38.715Z,10.70
2022-08-20T09:12:35.697Z,13.18
2022-08-20T09:15:23.714Z,12.25
2022-08-20T09:18:10.702Z,10.10
2022-08-20T09:20:44.665Z,11.43
2022-08-20T09:23:32.719Z,10.23
2022-08-20T09:26:13.699Z,9.80
2022-08-20T09:28:54.793Z,12.25
2022-08-20T09:31:41.697Z,10.20
2022-08-20T09:34:22.717Z,13.98
2022-08-20T09:37:16.733Z,14.27
2022-08-20T09:40:03.795Z,16.23
2022-08-20T09:42:46.738Z,12.77
2022-08-20T09:45:49.704Z,14.48
2022-08-20T09:48:43.713Z,12.85
2022-08-20T09:51:31.810Z,14.55
2022-08-20T09:54:12.721Z,10.43
2022-08-20T09:57:06.714Z,10.65
2022-08-20T10:00:06.724Z,9.88
2022-08-20T10:02:54.732Z,13.75
2022-08-20T10:05:28.786Z,12.90
2022-08-20T10:08:17.753Z,11.13
2022-08-20T10:10:51.997Z,11.20
2022-08-20T10:13:38.755Z,13.63
2022-08-20T10:16:12.805Z,16.85
2022-08-20T10:19:00.793Z,13.35
2022-08-20T10:21:38.580Z,14.88
2022-08-20T10:24:26.727Z,12.75
2022-08-20T10:27:11.747Z,12.35
2022-08-20T10:29:52.715Z,15.80
2022-08-20T10:32:40.746Z,14.10
2022-08-20T10:35:20.765Z,10.80
2022-08-20T10:38:01.850Z,12.52
2022-08-20T10:40:41.776Z,17.05
2022-08-20T10:43:31.871Z,14.90
2022-08-20T10:46:13.767Z,13.13
2022-08-20T10:49:00.754Z,14.52
2022-08-20T10:51:34.719Z,10.82
2022-08-20T10:54:21.758Z,15.95
2022-08-20T10:56:55.310Z,13.73
2022-08-20T10:59:41.793Z,12.20
2022-08-20T11:02:16.228Z,13.00
2022-08-20T11:05:03.773Z,13.80
2022-08-20T11:07:54.777Z,11.13
2022-08-20T11:10:38.954Z,14.38
2022-08-20T11:13:18.772Z,13.85
2022-08-20T11:15:59.826Z,11.32
2022-08-20T11:18:41.802Z,15.00
2022-08-20T11:21:25.874Z,13.55
2022-08-20T11:24:06.777Z,12.55
2022-08-20T11:26:47.847Z,13.07
2022-08-20T11:29:33.416Z,12.45
2022-08-20T11:32:14.903Z,13.45
2022-08-20T11:34:55.775Z,15.60
2022-08-20T11:37:36.903Z,13.38
2022-08-20T11:40:18.794Z,16.52
2022-08-20T11:43:14.216Z,12.13
2022-08-20T11:46:00.797Z,15.90
2022-08-20T11:48:40.865Z,14.10
2022-08-20T11:51:20.819Z,17.63
2022-08-20T11:54:01.921Z,14.80
2022-08-20T11:56:45.975Z,15.65
2022-08-20T11:59:33.779Z,20.33
2022-08-20T12:02:12.188Z,13.47
2022-08-20T12:05:00.793Z,16.00
2022-08-20T12:07:34.408Z,14.30
2022-08-20T12:10:22.805Z,12.73
2022-08-20T12:13:09.811Z,10.60
2022-08-20T12:15:50.789Z,13.32
2022-08-20T12:18:45.054Z,11.85
2022-08-20T12:21:32.598Z,12.48
2022-08-20T12:24:13.907Z,14.15
2022-08-20T12:27:00.795Z,11.30
2022-08-20T12:29:34.883Z,16.65
2022-08-20T12:32:23.816Z,10.55
2022-08-20T12:35:04.785Z,13.77
2022-08-20T12:37:58.800Z,13.93
2022-08-20T12:40:46.809Z,14.75
2022-08-20T12:43:27.831Z,14.32
2022-08-20T12:46:21.793Z,11.48
2022-08-20T12:49:15.803Z,12.98
2022-08-20T12:52:03.821Z,15.32
2022-08-20T12:54:44.796Z,15.70
2022-08-20T12:57:54.818Z,10.32
2022-08-20T13:00:43.799Z,10.40
2022-08-20T13:03:18.909Z,17.00
2022-08-20T13:06:07.821Z,12.45
2022-08-20T13:08:41.901Z,10.77
2022-08-20T13:11:28.892Z,14.23
2022-08-20T13:14:02.891Z,19.73
2022-08-20T13:16:49.850Z,15.73
2022-08-20T13:19:26.939Z,20.75
2022-08-20T13:22:13.840Z,21.85
2022-08-20T13:24:48.916Z,21.98
2022-08-20T13:27:35.818Z,22.50
2022-08-20T13:30:19.917Z,22.50
2022-08-20T13:32:59.824Z,24.73
2022-08-20T13:35:40.984Z,22.20
2022-08-20T13:38:20.828Z,25.90
2022-08-20T13:41:01.977Z,49.08
2022-08-20T13:43:41.840Z,17.15
2022-08-20T13:46:22.896Z,21.05
2022-08-20T13:49:02.865Z,22.20
2022-08-20T13:51:52.086Z,20.88
2022-08-20T13:54:29.920Z,15.40
2022-08-20T13:57:18.849Z,13.70
2022-08-20T14:00:00.839Z,15.45
2022-08-20T14:02:42.136Z,14.45
2022-08-20T14:05:22.841Z,15.93
2022-08-20T14:08:10.937Z,23.83
2022-08-20T14:10:51.985Z,15.75
2022-08-20T14:13:32.920Z,16.17
2022-08-20T14:16:21.095Z,22.65
2022-08-20T14:19:05.974Z,13.85
2022-08-20T14:21:45.859Z,20.27
2022-08-20T14:24:26.916Z,28.33
2022-08-20T14:27:07.878Z,16.77
2022-08-20T14:29:49.937Z,22.27
2022-08-20T14:32:29.843Z,20.02
2022-08-20T14:35:11.953Z,20.40
2022-08-20T14:37:58.881Z,25.73
2022-08-20T14:40:41.928Z,22.75
2022-08-20T14:43:22.856Z,20.25
2022-08-20T14:46:03.981Z,23.42
2022-08-20T14:48:44.875Z,15.45
2022-08-20T14:51:34.006Z,18.83
2022-08-20T14:54:13.876Z,15.95
2022-08-20T14:56:55.010Z,17.52
2022-08-20T14:59:34.868Z,18.95
2022-08-20T15:02:25.889Z,16.83
2022-08-20T15:04:59.458Z,35.33
2022-08-20T15:07:51.786Z,27.67
2022-08-20T15:10:37.872Z,13.98
2022-08-20T15:13:17.963Z,18.23
2022-08-20T15:16:04.882Z,10.60
2022-08-20T15:18:45.912Z,17.05
2022-08-20T15:21:45.132Z,11.40
2022-08-20T15:24:32.882Z,19.17
2022-08-20T15:27:06.943Z,15.48
2022-08-20T15:29:54.897Z,16.90
2022-08-20T15:32:35.003Z,15.25
2022-08-20T15:35:17.912Z,17.05
2022-08-20T15:37:57.983Z,11.57
2022-08-20T15:40:38.905Z,18.42
2022-08-20T15:43:26.904Z,19.60
2022-08-20T15:46:10.896Z,18.85
2022-08-20T15:48:52.989Z,22.83
2022-08-20T15:51:44.905Z,16.27
2022-08-20T15:54:27.970Z,22.85
2022-08-20T15:57:14.895Z,19.73
2022-08-20T16:00:13.050Z,17.38
2022-08-20T16:03:03.910Z,16.33
2022-08-20T16:05:49.974Z,23.77
2022-08-20T16:08:33.896Z,18.75
2022-08-20T16:12:04.999Z,12.95
2022-08-20T16:14:50.906Z,17.67
2022-08-20T16:20:35.387Z,12.30
2022-08-20T16:23:17.986Z,15.45
2022-08-20T16:26:15.918Z,19.98
2022-08-20T16:29:28.976Z,13.48
2022-08-20T16:32:15.943Z,20.40
2022-08-20T16:37:51.723Z,19.13
2022-08-20T16:40:41.926Z,15.55
2022-08-20T16:43:30.043Z,34.75
2022-08-20T16:46:19.941Z,22.23
2022-08-20T16:48:57.960Z,21.17
2022-08-20T16:51:52.934Z,18.45
2022-08-20T16:54:29.557Z,22.52
2022-08-20T16:57:19.960Z,14.93
2022-08-20T17:00:02.961Z,28.02
2022-08-20T17:02:55.212Z,27.30
2022-08-20T17:05:45.936Z,38.65
2022-08-20T17:08:38.929Z,41.83
2022-08-20T17:11:41.963Z,30.90
2022-08-20T17:14:28.926Z,23.40
2022-08-20T17:17:03.014Z,17.20
2022-08-20T17:19:57.923Z,29.83
2022-08-20T17:22:34.603Z,45.05
2022-08-20T17:25:23.940Z,39.83
2022-08-20T17:28:00.500Z,58.85
2022-08-20T17:30:47.948Z,19.08
2022-08-20T17:33:42.996Z,20.40
2022-08-20T17:36:32.967Z,44.22
2022-08-20T17:39:08.017Z,24.15
2022-08-20T17:41:56.951Z,30.58
2022-08-20T17:44:38.045Z,22.75
2022-08-20T17:47:25.950Z,23.08
2022-08-20T17:50:07.352Z,16.85
2022-08-20T17:52:59.981Z,16.35
2022-08-20T17:55:36.252Z,18.90
2022-08-20T17:58:26.956Z,18.33
2022-08-20T18:01:09.153Z,16.40
2022-08-20T18:03:53.826Z,23.75
2022-08-20T18:06:43.958Z,25.60
2022-08-20T18:12:01.949Z,22.48
2022-08-20T18:14:52.055Z,24.83
2022-08-20T18:18:05.976Z,25.40
2022-08-20T18:21:02.980Z,25.23
2022-08-20T18:24:06.983Z,28.10
2022-08-20T18:26:50.158Z,27.55
2022-08-20T18:29:33.971Z,32.33
2022-08-20T18:32:47.955Z,27.42
2022-08-20T18:35:45.753Z,31.63
2022-08-20T18:38:40.985Z,33.13
2022-08-20T18:41:35.985Z,38.58
2022-08-20T18:44:15.083Z,34.17
2022-08-20T18:47:07.002Z,31.33
2022-08-20T18:49:54.974Z,33.47
2022-08-20T18:52:31.171Z,40.88
2022-08-20T18:55:20.984Z,37.35
2022-08-20T18:58:06.991Z,43.83
2022-08-20T19:00:53.287Z,33.83
2022-08-20T19:03:36.066Z,40.63
2022-08-20T19:06:23.098Z,37.17
2022-08-20T19:09:30.996Z,40.08
2022-08-20T19:12:31.489Z,38.30
2022-08-20T19:15:13.009Z,41.67
2022-08-20T19:17:56.068Z,44.53
2022-08-20T19:20:39.995Z,50.70
2022-08-20T19:23:29.027Z,46.97
2022-08-20T19:26:25.490Z,47.50
2022-08-20T19:29:24.001Z,52.45
2022-08-20T19:32:13.974Z,50.47
2022-08-20T19:34:48.090Z,51.22
2022-08-20T19:37:50.447Z,47.22
2022-08-20T19:40:28.451Z,47.75
2022-08-20T19:43:21.015Z,59.45
2022-08-20T19:45:59.092Z,50.63
2022-08-20T19:49:13.018Z,45.30
2022-08-20T19:51:57.110Z,46.45
2022-08-20T19:54:51.999Z,47.72
2022-08-20T19:57:33.153Z,41.50
2022-08-20T20:00:18.025Z,42.65
2022-08-20T20:02:59.181Z,46.80
2022-08-20T20:05:39.017Z,50.10
2022-08-20T20:08:27.027Z,47.38
2022-08-20T20:11:01.596Z,56.00
2022-08-20T20:13:49.040Z,45.80
2022-08-20T20:16:23.228Z,46.20
2022-08-20T20:19:27.784Z,44.78
2022-08-20T20:22:19.121Z,40.97
2022-08-20T20:25:10.126Z,43.05
2022-08-20T20:27:57.022Z,43.72
2022-08-20T20:30:40.137Z,42.00
2022-08-20T20:33:25.061Z,38.58
2022-08-20T20:36:34.132Z,45.17
2022-08-20T20:39:17.045Z,39.53
2022-08-20T20:41:59.078Z,34.13
2022-08-20T20:44:41.037Z,38.17
2022-08-20T20:47:32.451Z,37.70
2022-08-20T20:50:33.049Z,36.55
2022-08-20T20:53:07.115Z,36.17
2022-08-20T20:56:02.036Z,35.03
2022-08-20T20:58:45.112Z,37.92
2022-08-20T21:01:50.720Z,34.00
2022-08-20T21:04:42.480Z,32.60
2022-08-20T21:07:25.027Z,34.60
2022-08-20T21:10:20.053Z,31.17
2022-08-20T21:13:10.054Z,31.95
2022-08-20T21:15:52.045Z,32.72
2022-08-20T21:18:46.044Z,31.23
2022-08-20T21:21:33.039Z,30.55
2022-08-20T21:24:07.280Z,31.02
2022-08-20T21:26:55.088Z,28.17
2022-08-20T21:29:37.624Z,32.17
2022-08-20T21:32:25.066Z,31.58
2022-08-20T21:35:06.034Z,33.10
2022-08-20T21:37:47.040Z,29.20
2022-08-20T21:40:35.061Z,26.58
2022-08-20T21:43:11.373Z,22.65
2022-08-20T21:45:59.067Z,27.27
2022-08-20T21:48:33.429Z,29.67
2022-08-20T21:51:21.065Z,25.35
2022-08-20T21:53:54.659Z,28.70
2022-08-20T21:56:42.071Z,30.20
2022-08-20T21:59:16.651Z,25.48
2022-08-20T22:02:04.074Z,25.95
2022-08-20T22:04:38.274Z,25.55
2022-08-20T22:07:26.066Z,27.38
2022-08-20T22:10:06.102Z,26.33
2022-08-20T22:12:47.154Z,27.00
2022-08-20T22:15:35.093Z,25.70
2022-08-20T22:18:23.067Z,25.33
2022-08-20T22:20:57.402Z,30.80
2022-08-20T22:23:47.081Z,34.25
2022-08-20T22:26:21.311Z,27.42
2022-08-20T22:29:09.094Z,28.40
2022-08-20T22:31:50.083Z,27.73
2022-08-20T22:34:31.343Z,28.23
2022-08-20T22:37:11.103Z,27.25
2022-08-20T22:39:59.085Z,28.73
2022-08-20T22:42:32.723Z,28.52
2022-08-20T22:45:20.081Z,27.98
2022-08-20T22:47:54.091Z,30.73
2022-08-20T22:50:42.103Z,29.80
2022-08-20T22:53:16.813Z,29.75
2022-08-20T22:56:04.090Z,27.73
2022-08-20T22:58:44.089Z,29.58
2022-08-20T23:01:34.162Z,26.65
2022-08-20T23:04:27.106Z,27.63
2022-08-20T23:07:09.104Z,29.23
2022-08-20T23:10:03.097Z,32.78
2022-08-20T23:12:51.089Z,33.95
2022-08-20T23:15:25.223Z,32.10
2022-08-20T23:18:18.107Z,28.98
2022-08-20T23:21:00.254Z,30.27
2022-08-20T23:23:47.113Z,33.42
2022-08-20T23:26:27.219Z,26.88
2022-08-20T23:29:14.122Z,28.35
2022-08-20T23:31:56.216Z,25.98
2022-08-20T23:34:44.139Z,29.00
2022-08-20T23:37:20.950Z,26.75
2022-08-20T23:40:02.173Z,28.55
2022-08-20T23:42:42.127Z,29.42
2022-08-20T23:45:16.176Z,25.15
2022-08-20T23:48:04.138Z,28.23
2022-08-20T23:50:45.117Z,28.98
2022-08-20T23:53:25.725Z,37.58
2022-08-20T23:56:13.132Z,34.28
2022-08-20T23:58:47.086Z,32.22
